Portada
Imágenes satélite Pronóstico 15 díasClimaPredicción Marítima Ciclones Rayo AeropuertosFAQ Noticias Acerca
El tiempo : Europa África América del Norte América del Sur Asia Australia-Oceanía Otros
Idiomas Contacto

Humberside, Inglaterra

latitud: 53-35N, longitud: 000-21W, altitud: 31 m


METAR: EGNJ 220220Z AUTO 15011KT 3400 HZ OVC007/// 10/09 Q1011
TAF: EGNJ 220157Z 2203/2212 15006KT 5000 BR BKN007 TEMPO 2203/2212 2500 RADZ BKN003 PROB30 TEMPO 2203/2209 1200

Hora: 02:39 (02:39 UTC)

Observación

El informe se hizo hace 19 minutos, a las 02:20 UTC
Viento 11 kt del sur-sureste
Temperatura 10°C
Humedad 93%
Presión 1011 hPa
Visibilidad: 3400 m
calima

Cambiar las unidades

Pronóstico

El informe se hizo hace 42 minutos, a las 01:57 UTC
Pronóstico válido del 22 a las 03 UTC al 22 a las 12 UTC
Viento 6 kt del sur-sureste
Visibilidad: 5000 m
Cielo nuboso a una altura de 700 ft
neblina
Temporalmente
del 22 a las 03 UTC al 22 a las 12 UTC
Visibilidad: 2500 m
Cielo nuboso a una altura de 300 ft
lluvia llovizna
Probabilidad 30% :
Temporalmente
del 22 a las 03 UTC al 22 a las 09 UTC
Visibilidad: 1200 m
La información que se ofrece en estas páginas está sujeta a una cláusula de exención de responsabilidad
El tiempo : Europa África América del Norte América del Sur Asia Australia-Oceanía Otros
Imágenes satélite Pronóstico 15 díasClimaPredicción Marítima Ciclones Rayo AeropuertosFAQ Idiomas Contacto Noticias Acerca